Portada
METAR-TAF:

METAR-TAF

Aeroports :

Termez, Uzbekistan

latitud: 37-14N, longitud: 067-16E, altitud: 302 m

Observació

L'informe es va fer fa 20 minuts, a les 18:00 UTC
Vent 10 kt del Nord/Nord-Est
Temperatura 25°C
Humitat 44%
Pressió 1005 hPa
Visibilitat 10 km o més
Núvols disperses a una alçada de 6000 ft, Cumulonimbus.

METAR: UTST 111800Z 03010KT 9999 SCT060CB 25/12 Q1005 R88/CLRD70 NOSIG

Hora: 23:20 (18:20 UTC)

Pronòstic

L'informe es va fer fa 1 hora i 20 minuts, a les 17:00 UTC
Pronòstic vàlid del 11 a les 18 UTC al 12 a les 18 UTC
Vent 10 kt amb direcció variable
Visibilitat: 6000 m
Núvols disperses a una alçada de 6000 ft, Cumulonimbus.
Cel ennuvolat a una alçada de 10000 ft
Probabilitat 40% :
Temporalment
l' 11 a les 18 UTC al 12 a les 05 UTC
Cel ennuvolat a una alçada de 6000 ft, Cumulonimbus.
tempesta, pluja

TAF: UTST 111700Z 1118/1218 VRB10KT 6000 SCT060CB BKN100 TX37/1211Z PROB40 TEMPO 1118/1205 -TSRA BKN060CB

Observacions i pronòstics meteorològics de més de 4000 aeroports (METAR i TAF).

Les estacions disponibles són els punts grocs i vermells al mapa.

Posi el ratolí al punt desitjat per veure el nom de l'estació.

Feu clic per veure les observacions i els pronòstics meteorològics.

Per canviar el mapa: feu clic els botons verds amb una creu de color negre per apropar; al botó verd amb un guió per allunyar la imatge; o en les fletxes verdes per a mapes adjacents.


METAR-TAF: